createdAt,value
2024-02-13T00:01:42.215Z,15.05
2024-02-13T00:04:11.543Z,16.13
2024-02-13T00:06:39.697Z,9.75
2024-02-13T00:09:07.758Z,16.10
2024-02-13T00:11:36.224Z,13.93
2024-02-13T00:14:04.219Z,11.35
2024-02-13T00:16:32.363Z,11.68
2024-02-13T00:19:02.464Z,9.40
2024-02-13T00:21:30.830Z,11.48
2024-02-13T00:23:58.889Z,9.80
2024-02-13T00:26:27.567Z,12.05
2024-02-13T00:28:55.447Z,12.63
2024-02-13T00:31:23.720Z,12.23
2024-02-13T00:33:53.217Z,13.93
2024-02-13T00:36:23.508Z,15.90
2024-02-13T00:38:51.460Z,12.93
2024-02-13T00:41:20.021Z,12.82
2024-02-13T00:43:47.822Z,10.70
2024-02-13T00:46:15.673Z,11.52
2024-02-13T00:48:43.693Z,12.40
2024-02-13T00:51:12.184Z,9.93
2024-02-13T00:53:41.594Z,17.88
2024-02-13T00:56:09.612Z,16.88
2024-02-13T00:58:38.426Z,17.05
2024-02-13T01:01:06.539Z,17.88
2024-02-13T01:03:35.698Z,15.30
2024-02-13T01:06:04.627Z,22.70
2024-02-13T01:08:34.445Z,19.30
2024-02-13T01:11:04.273Z,16.05
2024-02-13T01:13:33.268Z,15.90
2024-02-13T01:16:04.454Z,14.13
2024-02-13T01:18:32.486Z,13.68
2024-02-13T01:21:00.745Z,14.43
2024-02-13T01:23:28.609Z,15.93
2024-02-13T01:25:57.900Z,15.75
2024-02-13T01:28:27.075Z,18.65
2024-02-13T01:30:55.464Z,11.77
2024-02-13T01:33:23.609Z,14.80
2024-02-13T01:35:52.131Z,16.27
2024-02-13T01:38:21.420Z,10.60
2024-02-13T01:40:49.389Z,17.95
2024-02-13T01:43:17.233Z,19.75
2024-02-13T01:45:49.285Z,16.85
2024-02-13T01:48:19.223Z,16.35
2024-02-13T01:50:48.329Z,14.63
2024-02-13T01:53:16.752Z,13.93
2024-02-13T01:55:45.277Z,14.70
2024-02-13T01:58:14.195Z,18.08
2024-02-13T02:00:43.254Z,18.40
2024-02-13T02:03:16.773Z,18.80
2024-02-13T02:05:45.184Z,17.60
2024-02-13T02:08:15.412Z,18.27
2024-02-13T02:10:45.671Z,17.67
2024-02-13T02:13:15.824Z,20.40
2024-02-13T02:15:44.087Z,20.88
2024-02-13T02:18:14.386Z,19.92
2024-02-13T02:20:42.465Z,17.40
2024-02-13T02:23:10.440Z,23.90
2024-02-13T02:25:40.014Z,26.10
2024-02-13T02:28:08.445Z,22.48
2024-02-13T02:30:36.263Z,24.60
2024-02-13T02:33:04.987Z,19.83
2024-02-13T02:35:32.999Z,32.33
2024-02-13T02:38:01.297Z,24.45
2024-02-13T02:40:29.262Z,22.77
2024-02-13T02:43:00.781Z,26.88
2024-02-13T02:45:28.944Z,19.75
2024-02-13T02:47:58.151Z,22.27
2024-02-13T02:50:26.618Z,19.40
2024-02-13T02:52:54.668Z,21.92
2024-02-13T02:55:23.343Z,22.98
2024-02-13T02:57:52.165Z,18.70
2024-02-13T03:00:23.317Z,18.77
2024-02-13T03:02:51.663Z,20.90
2024-02-13T03:05:19.983Z,23.05
2024-02-13T03:07:48.181Z,21.92
2024-02-13T03:10:16.097Z,25.40
2024-02-13T03:12:45.093Z,23.52
2024-02-13T03:15:13.697Z,16.80
2024-02-13T03:17:43.927Z,28.95
2024-02-13T03:20:14.043Z,24.95
2024-02-13T03:22:43.161Z,28.30
2024-02-13T03:25:11.622Z,24.00
2024-02-13T03:27:39.662Z,27.65
2024-02-13T03:30:11.580Z,26.40
2024-02-13T03:32:39.631Z,27.75
2024-02-13T03:35:09.666Z,27.83
2024-02-13T03:37:37.574Z,25.77
2024-02-13T03:40:09.936Z,28.30
2024-02-13T03:42:38.366Z,26.33
2024-02-13T03:45:06.629Z,30.33
2024-02-13T03:47:35.616Z,30.45
2024-02-13T03:50:03.722Z,28.05
2024-02-13T03:52:35.105Z,22.52
2024-02-13T03:55:04.229Z,27.73
2024-02-13T03:57:32.564Z,29.77
2024-02-13T04:00:00.861Z,26.30
2024-02-13T04:02:29.470Z,25.02
2024-02-13T04:04:57.328Z,25.02
2024-02-13T04:07:25.298Z,31.30
2024-02-13T04:09:54.504Z,31.02
2024-02-13T04:12:22.684Z,34.78
2024-02-13T04:14:51.214Z,33.90
2024-02-13T04:17:19.705Z,32.70
2024-02-13T04:19:47.897Z,28.83
2024-02-13T04:22:15.773Z,31.80
2024-02-13T04:24:43.635Z,32.15
2024-02-13T04:27:12.862Z,30.38
2024-02-13T04:29:43.958Z,30.10
2024-02-13T04:32:13.829Z,32.53
2024-02-13T04:34:43.216Z,37.45
2024-02-13T04:37:11.322Z,38.13
2024-02-13T04:39:39.540Z,29.15
2024-02-13T04:42:08.032Z,25.27
2024-02-13T04:44:37.801Z,34.15
2024-02-13T04:47:07.078Z,27.05
2024-02-13T04:49:35.162Z,32.42
2024-02-13T04:52:02.998Z,33.03
2024-02-13T04:54:31.875Z,29.73
2024-02-13T04:57:00.700Z,31.02
2024-02-13T04:59:36.297Z,35.58
2024-02-13T05:02:07.077Z,28.92
2024-02-13T05:04:52.589Z,30.83
2024-02-13T05:07:24.797Z,32.35
2024-02-13T05:09:54.175Z,31.08
2024-02-13T05:12:22.352Z,37.83
2024-02-13T05:14:50.266Z,28.25
2024-02-13T05:17:19.530Z,26.15
2024-02-13T05:19:50.186Z,33.35
2024-02-13T05:22:18.359Z,26.35
2024-02-13T05:24:46.957Z,27.25
2024-02-13T05:27:14.810Z,28.38
2024-02-13T05:29:43.052Z,29.20
2024-02-13T05:32:12.526Z,31.17
2024-02-13T05:34:42.667Z,28.92
2024-02-13T05:37:10.649Z,32.80
2024-02-13T05:39:38.485Z,30.98
2024-02-13T05:42:06.509Z,29.48
2024-02-13T05:44:35.128Z,33.25
2024-02-13T05:47:04.126Z,30.15
2024-02-13T05:49:34.152Z,27.85
2024-02-13T05:52:06.111Z,31.10
2024-02-13T05:54:34.885Z,27.38
2024-02-13T05:57:03.567Z,35.78
2024-02-13T05:59:33.000Z,26.38
2024-02-13T06:02:01.487Z,26.38
2024-02-13T06:04:33.965Z,26.02
2024-02-13T06:07:04.183Z,31.08
2024-02-13T06:09:32.412Z,26.42
2024-02-13T06:12:00.530Z,28.02
2024-02-13T06:14:28.691Z,28.63
2024-02-13T06:16:58.553Z,29.13
2024-02-13T06:19:27.103Z,25.55
2024-02-13T06:21:55.245Z,26.20
2024-02-13T06:24:25.078Z,27.10
2024-02-13T06:26:56.040Z,30.48
2024-02-13T06:29:25.683Z,25.77
2024-02-13T06:31:56.153Z,28.50
2024-02-13T06:34:24.508Z,26.50
2024-02-13T06:36:52.471Z,27.80
2024-02-13T06:39:22.417Z,25.73
2024-02-13T06:41:52.038Z,28.58
2024-02-13T06:44:23.524Z,23.20
2024-02-13T06:46:51.593Z,29.55
2024-02-13T06:49:19.548Z,24.08
2024-02-13T06:51:47.402Z,27.88
2024-02-13T06:54:15.250Z,23.55
2024-02-13T06:56:43.290Z,25.92
2024-02-13T06:59:12.671Z,25.27
2024-02-13T07:01:40.551Z,22.75
2024-02-13T07:04:08.508Z,23.40
2024-02-13T07:06:46.398Z,28.65
2024-02-13T07:09:24.092Z,25.20
2024-02-13T07:11:53.507Z,25.08
2024-02-13T07:14:25.637Z,24.15
2024-02-13T07:16:54.738Z,24.73
2024-02-13T07:19:23.287Z,22.17
2024-02-13T07:21:51.094Z,23.02
2024-02-13T07:24:19.011Z,18.55
2024-02-13T07:26:47.212Z,23.75
2024-02-13T07:29:16.797Z,24.88
2024-02-13T07:31:47.734Z,26.33
2024-02-13T07:34:15.794Z,24.42
2024-02-13T07:36:43.892Z,29.52
2024-02-13T07:39:12.191Z,22.23
2024-02-13T07:41:40.318Z,20.63
2024-02-13T07:44:08.193Z,28.33
2024-02-13T07:46:37.119Z,24.23
2024-02-13T07:49:06.424Z,25.80
2024-02-13T07:51:34.349Z,27.48
2024-02-13T07:54:02.282Z,27.58
2024-02-13T07:56:30.845Z,22.73
2024-02-13T07:58:59.337Z,22.10
2024-02-13T08:01:28.250Z,23.02
2024-02-13T08:03:56.418Z,23.45
2024-02-13T08:06:26.014Z,27.15
2024-02-13T08:08:54.386Z,20.90
2024-02-13T08:11:23.132Z,22.75
2024-02-13T08:13:51.185Z,27.83
2024-02-13T08:16:20.061Z,24.88
2024-02-13T08:18:51.378Z,21.25
2024-02-13T08:21:20.175Z,22.20
2024-02-13T08:23:49.603Z,27.13
2024-02-13T08:26:17.692Z,23.95
2024-02-13T08:28:46.273Z,21.75
2024-02-13T08:31:15.084Z,26.60
2024-02-13T08:33:45.626Z,24.73
2024-02-13T08:36:13.842Z,22.75
2024-02-13T08:38:44.634Z,19.73
2024-02-13T08:41:15.752Z,22.60
2024-02-13T08:43:44.450Z,24.92
2024-02-13T08:46:14.388Z,23.73
2024-02-13T08:48:42.491Z,26.05
2024-02-13T08:51:10.682Z,27.95
2024-02-13T08:53:39.264Z,23.83
2024-02-13T08:56:07.960Z,25.08
2024-02-13T08:58:37.242Z,25.60
2024-02-13T09:01:06.117Z,22.33
2024-02-13T09:03:35.093Z,23.88
2024-02-13T09:06:05.760Z,22.88
2024-02-13T09:08:34.861Z,26.13
2024-02-13T09:11:02.720Z,22.25
2024-02-13T09:13:31.058Z,20.70
2024-02-13T09:16:00.579Z,21.27
2024-02-13T09:18:28.629Z,25.75
2024-02-13T09:20:56.591Z,22.50
2024-02-13T09:23:28.839Z,20.35
2024-02-13T09:25:56.906Z,21.10
2024-02-13T09:28:24.778Z,22.05
2024-02-13T09:30:53.054Z,23.35
2024-02-13T09:33:24.537Z,21.17
2024-02-13T09:35:53.238Z,19.20
2024-02-13T09:38:21.209Z,17.42
2024-02-13T09:40:49.784Z,21.63
2024-02-13T09:43:19.251Z,17.83
2024-02-13T09:45:47.967Z,22.00
2024-02-13T09:48:22.416Z,19.00
2024-02-13T09:50:52.968Z,16.25
2024-02-13T09:53:25.930Z,16.63
2024-02-13T09:55:56.653Z,18.75
2024-02-13T09:58:24.774Z,20.90
2024-02-13T10:00:55.741Z,17.50
2024-02-13T10:03:25.514Z,15.50
2024-02-13T10:05:55.704Z,15.48
2024-02-13T10:08:29.097Z,17.83
2024-02-13T10:11:03.111Z,20.55
2024-02-13T10:13:36.416Z,15.82
2024-02-13T10:16:05.243Z,13.88
2024-02-13T10:18:34.769Z,14.40
2024-02-13T10:21:06.773Z,15.25
2024-02-13T10:23:36.308Z,15.45
2024-02-13T10:26:08.953Z,16.40
2024-02-13T10:28:36.891Z,12.45
2024-02-13T10:31:05.966Z,12.57
2024-02-13T10:33:42.152Z,12.48
2024-02-13T10:36:12.742Z,12.90
2024-02-13T10:38:41.724Z,12.13
2024-02-13T10:41:12.635Z,13.82
2024-02-13T10:43:43.669Z,9.20
2024-02-13T10:46:14.913Z,11.38
2024-02-13T10:48:53.131Z,12.80
2024-02-13T10:51:24.618Z,8.73
2024-02-13T10:53:52.605Z,9.43
2024-02-13T10:56:22.355Z,14.15
2024-02-13T10:58:53.020Z,14.05
2024-02-13T11:01:24.163Z,9.85
2024-02-13T11:03:54.873Z,11.93
2024-02-13T11:06:24.285Z,9.80
2024-02-13T11:08:52.755Z,12.23
2024-02-13T11:11:22.581Z,12.57
2024-02-13T11:13:50.988Z,8.23
2024-02-13T11:16:19.431Z,8.90
2024-02-13T11:18:50.267Z,10.07
2024-02-13T11:21:22.977Z,11.88
2024-02-13T11:24:01.109Z,9.95
2024-02-13T11:26:34.122Z,9.63
2024-02-13T11:29:12.147Z,7.97
2024-02-13T11:31:41.321Z,9.25
2024-02-13T11:34:11.439Z,7.20
2024-02-13T11:36:39.723Z,7.03
2024-02-13T11:39:09.579Z,8.75
2024-02-13T11:41:37.757Z,9.15
2024-02-13T11:44:08.894Z,11.35
2024-02-13T11:46:39.835Z,6.57
2024-02-13T11:49:11.068Z,10.93
2024-02-13T11:51:40.341Z,8.68
2024-02-13T11:54:10.637Z,6.35
2024-02-13T11:56:39.974Z,7.85
2024-02-13T11:59:08.687Z,7.43
2024-02-13T12:01:38.835Z,6.50
2024-02-13T12:04:13.083Z,9.93
2024-02-13T12:06:41.925Z,9.90
2024-02-13T12:09:11.928Z,5.57
2024-02-13T12:11:40.102Z,5.85
2024-02-13T12:14:10.255Z,7.90
2024-02-13T12:16:39.476Z,8.80
2024-02-13T12:19:09.453Z,6.65
2024-02-13T12:21:40.045Z,6.93
2024-02-13T12:24:10.860Z,6.00
2024-02-13T12:26:40.282Z,4.32
2024-02-13T12:29:16.424Z,5.65
2024-02-13T12:34:17.947Z,6.50
2024-02-13T12:36:46.352Z,4.22
2024-02-13T12:39:18.012Z,7.50
2024-02-13T12:41:48.453Z,6.72
2024-02-13T12:44:16.723Z,7.30
2024-02-13T12:46:47.132Z,5.97
2024-02-13T12:49:17.817Z,3.90
2024-02-13T12:51:46.030Z,7.95
2024-02-13T12:54:15.477Z,3.13
2024-02-13T12:56:43.488Z,7.15
2024-02-13T12:59:13.795Z,5.40
2024-02-13T13:01:45.901Z,6.40
2024-02-13T13:04:15.263Z,6.97
2024-02-13T13:06:45.515Z,7.03
2024-02-13T13:09:23.225Z,9.13
2024-02-13T13:11:56.017Z,7.18
2024-02-13T13:14:27.858Z,4.30
2024-02-13T13:16:57.654Z,6.70
2024-02-13T13:19:28.634Z,3.33
2024-02-13T13:21:57.455Z,3.30
2024-02-13T13:24:25.754Z,5.28
2024-02-13T13:26:56.178Z,4.22
2024-02-13T13:29:25.881Z,4.85
2024-02-13T13:31:53.867Z,6.15
2024-02-13T13:34:25.195Z,8.43
2024-02-13T13:36:54.503Z,5.07
2024-02-13T13:39:29.532Z,4.97
2024-02-13T13:41:58.889Z,3.67
2024-02-13T13:44:28.913Z,4.85
2024-02-13T13:46:56.839Z,6.60
2024-02-13T13:49:25.935Z,5.20
2024-02-13T13:51:53.761Z,4.40
2024-02-13T13:54:23.208Z,3.45
2024-02-13T13:56:51.338Z,6.78
2024-02-13T13:59:19.519Z,5.65
2024-02-13T14:01:48.759Z,3.72
2024-02-13T14:04:16.712Z,3.63
2024-02-13T14:06:44.991Z,5.47
2024-02-13T14:09:12.791Z,7.07
2024-02-13T14:11:41.170Z,3.65
2024-02-13T14:14:10.004Z,4.25
2024-02-13T14:16:37.800Z,4.78
2024-02-13T14:19:07.790Z,6.55
2024-02-13T14:21:37.714Z,7.38
2024-02-13T14:24:08.917Z,4.95
2024-02-13T14:26:36.734Z,4.28
2024-02-13T14:29:05.247Z,4.18
2024-02-13T14:31:33.154Z,5.47
2024-02-13T14:34:01.215Z,4.50
2024-02-13T14:36:30.475Z,7.32
2024-02-13T14:38:58.599Z,4.40
2024-02-13T14:41:26.557Z,5.47
2024-02-13T14:43:55.021Z,5.70
2024-02-13T14:46:23.053Z,1.92
2024-02-13T14:48:51.113Z,6.07
2024-02-13T14:51:19.836Z,2.90
2024-02-13T14:53:50.283Z,5.57
2024-02-13T14:56:18.464Z,5.18
2024-02-13T14:58:46.909Z,4.55
2024-02-13T15:01:14.861Z,7.45
2024-02-13T15:03:43.567Z,8.30
2024-02-13T15:06:11.533Z,6.90
2024-02-13T15:08:41.140Z,2.47
2024-02-13T15:11:12.065Z,4.03
2024-02-13T15:13:40.489Z,4.50
2024-02-13T15:16:08.926Z,6.13
2024-02-13T15:18:38.122Z,2.85
2024-02-13T15:21:07.256Z,3.10
2024-02-13T15:23:35.186Z,3.15
2024-02-13T15:26:05.940Z,8.35
2024-02-13T15:28:36.537Z,3.95
2024-02-13T15:31:05.418Z,2.85
2024-02-13T15:33:33.700Z,2.85
2024-02-13T15:36:06.088Z,2.55
2024-02-13T15:38:51.823Z,6.38
2024-02-13T15:41:37.823Z,3.28
2024-02-13T15:44:33.353Z,5.63
2024-02-13T15:47:04.969Z,3.95
2024-02-13T15:49:33.515Z,3.22
2024-02-13T15:52:02.105Z,4.50
2024-02-13T15:54:31.784Z,2.55
2024-02-13T15:56:59.789Z,3.33
2024-02-13T15:59:30.580Z,3.40
2024-02-13T16:01:59.317Z,6.07
2024-02-13T16:04:27.461Z,4.15
2024-02-13T16:06:56.835Z,5.43
2024-02-13T16:09:26.961Z,3.30
2024-02-13T16:11:54.901Z,3.58
2024-02-13T16:14:22.874Z,5.78
2024-02-13T16:16:52.121Z,3.53
2024-02-13T16:19:20.059Z,2.63
2024-02-13T16:21:47.962Z,3.72
2024-02-13T16:24:16.160Z,4.88
2024-02-13T16:26:44.855Z,4.88
2024-02-13T16:29:12.688Z,3.13
2024-02-13T16:31:40.479Z,5.13
2024-02-13T16:34:09.872Z,5.72
2024-02-13T16:36:37.938Z,3.72
2024-02-13T16:39:06.218Z,2.92
2024-02-13T16:41:34.157Z,5.55
2024-02-13T16:44:02.075Z,4.45
2024-02-13T16:46:33.549Z,3.10
2024-02-13T16:49:01.890Z,3.17
2024-02-13T16:51:32.608Z,5.38
2024-02-13T16:54:00.653Z,2.58
2024-02-13T16:56:28.548Z,4.18
2024-02-13T16:58:57.249Z,5.55
2024-02-13T17:01:25.489Z,4.15
2024-02-13T17:03:54.977Z,3.63
2024-02-13T17:06:23.157Z,5.70
2024-02-13T17:08:52.606Z,3.97
2024-02-13T17:11:21.335Z,6.72
2024-02-13T17:13:49.242Z,5.20
2024-02-13T17:16:17.936Z,3.40
2024-02-13T17:18:45.985Z,2.90
2024-02-13T17:21:14.007Z,4.50
2024-02-13T17:23:41.925Z,4.45
2024-02-13T17:26:11.161Z,3.88
2024-02-13T17:28:39.881Z,4.43
2024-02-13T17:31:07.678Z,3.60
2024-02-13T17:33:36.173Z,4.82
2024-02-13T17:36:04.872Z,3.65
2024-02-13T17:38:35.913Z,3.40
2024-02-13T17:41:05.923Z,2.65
2024-02-13T17:43:35.549Z,4.13
2024-02-13T17:46:03.384Z,3.90
2024-02-13T17:48:31.870Z,2.53
2024-02-13T17:50:59.894Z,5.07
2024-02-13T17:53:27.755Z,4.35
2024-02-13T17:55:56.151Z,3.00
2024-02-13T17:58:23.935Z,3.17
2024-02-13T18:00:54.168Z,3.13
2024-02-13T18:03:22.129Z,4.45
2024-02-13T18:05:50.887Z,4.82
2024-02-13T18:08:19.215Z,4.18
2024-02-13T18:10:47.099Z,3.38
2024-02-13T18:13:15.071Z,2.70
2024-02-13T18:15:43.057Z,5.93
2024-02-13T18:18:12.801Z,3.72
2024-02-13T18:20:42.973Z,2.83
2024-02-13T18:23:11.394Z,5.22
2024-02-13T18:25:39.240Z,2.83
2024-02-13T18:28:07.832Z,4.65
2024-02-13T18:30:35.901Z,4.05
2024-02-13T18:33:04.563Z,5.50
2024-02-13T18:35:33.955Z,3.33
2024-02-13T18:38:01.830Z,3.63
2024-02-13T18:40:29.746Z,4.13
2024-02-13T18:42:57.991Z,3.63
2024-02-13T18:45:28.012Z,4.22
2024-02-13T18:47:55.927Z,6.32
2024-02-13T18:50:23.844Z,5.60
2024-02-13T18:52:53.339Z,6.97
2024-02-13T18:55:22.138Z,3.10
2024-02-13T18:57:52.740Z,4.82
2024-02-13T19:00:20.611Z,3.13
2024-02-13T19:02:49.834Z,3.92
2024-02-13T19:05:18.574Z,12.15
2024-02-13T19:07:46.730Z,4.47
2024-02-13T19:10:15.953Z,3.42
2024-02-13T19:12:44.267Z,4.97
2024-02-13T19:15:16.241Z,4.13
2024-02-13T19:17:44.596Z,4.93
2024-02-13T19:20:14.943Z,4.20
2024-02-13T19:22:42.839Z,4.70
2024-02-13T19:25:10.853Z,6.55
2024-02-13T19:27:40.337Z,4.65
2024-02-13T19:30:11.397Z,6.75
2024-02-13T19:32:40.949Z,6.22
2024-02-13T19:35:10.634Z,4.75
2024-02-13T19:37:38.544Z,11.18
2024-02-13T19:40:08.314Z,4.63
2024-02-13T19:42:36.446Z,6.78
2024-02-13T19:45:06.635Z,3.35
2024-02-13T19:47:35.727Z,4.50
2024-02-13T19:50:03.922Z,4.18
2024-02-13T19:52:31.840Z,5.28
2024-02-13T19:54:59.675Z,4.43
2024-02-13T19:57:28.181Z,2.85
2024-02-13T19:59:56.321Z,4.85
2024-02-13T20:02:26.678Z,5.55
2024-02-13T20:04:58.403Z,5.25
2024-02-13T20:07:26.501Z,3.97
2024-02-13T20:09:55.595Z,4.90
2024-02-13T20:12:25.610Z,3.10
2024-02-13T20:14:53.912Z,5.03
2024-02-13T20:17:22.043Z,3.75
2024-02-13T20:19:51.615Z,2.33
2024-02-13T20:22:20.518Z,4.45
2024-02-13T20:24:48.835Z,4.15
2024-02-13T20:27:16.672Z,3.10
2024-02-13T20:29:45.085Z,3.92
2024-02-13T20:32:15.228Z,3.10
2024-02-13T20:34:43.960Z,7.00
2024-02-13T20:37:15.660Z,3.58
2024-02-13T20:39:43.591Z,3.38
2024-02-13T20:42:11.429Z,4.68
2024-02-13T20:44:40.561Z,3.75
2024-02-13T20:47:08.500Z,3.75
2024-02-13T20:52:05.866Z,5.45
2024-02-13T20:54:35.081Z,5.68
2024-02-13T20:57:02.930Z,4.45
2024-02-13T20:59:31.248Z,4.40
2024-02-13T21:02:02.660Z,3.17
2024-02-13T21:04:30.863Z,3.05
2024-02-13T21:07:00.880Z,4.45
2024-02-13T21:09:28.729Z,2.50
2024-02-13T21:11:57.882Z,2.33
2024-02-13T21:14:27.264Z,2.90
2024-02-13T21:16:55.085Z,3.47
2024-02-13T21:19:23.827Z,4.00
2024-02-13T21:22:09.322Z,3.90
2024-02-13T21:24:37.169Z,3.93
2024-02-13T21:27:06.864Z,3.45
2024-02-13T21:29:34.925Z,2.95
2024-02-13T21:32:04.178Z,4.35
2024-02-13T21:34:32.188Z,4.93
2024-02-13T21:37:00.094Z,4.03
2024-02-13T21:39:28.443Z,3.70
2024-02-13T21:41:56.306Z,3.60
2024-02-13T21:44:26.936Z,3.75
2024-02-13T21:46:56.641Z,3.08
2024-02-13T21:49:25.236Z,4.25
2024-02-13T21:51:53.984Z,4.00
2024-02-13T21:54:21.970Z,4.07
2024-02-13T21:56:50.547Z,5.60
2024-02-13T21:59:18.433Z,3.30
2024-02-13T22:01:47.557Z,4.35
2024-02-13T22:04:16.069Z,5.72
2024-02-13T22:06:44.501Z,4.03
2024-02-13T22:09:13.425Z,3.65
2024-02-13T22:11:43.068Z,3.72
2024-02-13T22:14:11.539Z,6.40
2024-02-13T22:16:39.319Z,3.03
2024-02-13T22:19:08.702Z,7.82
2024-02-13T22:21:36.803Z,6.07
2024-02-13T22:24:07.513Z,6.28
2024-02-13T22:26:39.266Z,5.05
2024-02-13T22:29:08.513Z,5.38
2024-02-13T22:31:36.792Z,4.88
2024-02-13T22:34:07.076Z,7.05
2024-02-13T22:36:36.514Z,4.30
2024-02-13T22:39:04.534Z,5.97
2024-02-13T22:41:32.575Z,7.40
2024-02-13T22:44:01.396Z,4.03
2024-02-13T22:46:29.188Z,5.57
2024-02-13T22:48:57.122Z,4.50
2024-02-13T22:51:25.119Z,5.45
2024-02-13T22:53:54.342Z,4.85
2024-02-13T22:56:22.473Z,4.45
2024-02-13T22:58:51.734Z,4.88
2024-02-13T23:01:19.577Z,5.57
2024-02-13T23:03:47.969Z,8.48
2024-02-13T23:06:16.159Z,8.90
2024-02-13T23:08:44.166Z,5.15
2024-02-13T23:11:13.440Z,6.85
2024-02-13T23:13:45.729Z,4.63
2024-02-13T23:16:17.853Z,7.30
2024-02-13T23:18:45.882Z,7.78
2024-02-13T23:21:14.023Z,4.97
2024-02-13T23:23:42.003Z,6.55
2024-02-13T23:26:10.089Z,6.38
2024-02-13T23:28:48.712Z,6.22
2024-02-13T23:31:24.144Z,4.82
2024-02-13T23:33:52.127Z,8.82
2024-02-13T23:36:20.120Z,7.60
2024-02-13T23:38:48.520Z,7.35
2024-02-13T23:41:17.135Z,6.43
2024-02-13T23:43:46.765Z,7.50
2024-02-13T23:46:14.607Z,5.57
2024-02-13T23:48:42.676Z,6.00
2024-02-13T23:51:10.956Z,7.82
2024-02-13T23:53:38.898Z,5.60
2024-02-13T23:56:07.784Z,4.82
2024-02-13T23:58:35.730Z,6.43
